| time (UTC) | temp C | wind direction | speed KPH | gust KPH | rain 1hr cm | rain 24hr cm | rain mn cm | humidity % | barometer mb |
| 20260507130011 | 15 | 333 | 0.0 | 0.0 | 0.00 | 0.05 | 0.00 | 92 | 1016.5 |
| 20260507124510 | 15 | 333 | 0.0 | 0.0 | 0.00 | 0.05 | 0.00 | 92 | 1016.4 |
| 20260507123012 | 15 | 333 | 0.0 | 0.0 | 0.00 | 0.05 | 0.00 | 92 | 1016.3 |
| 20260507121508 | 15 | 333 | 0.0 | 0.0 | 0.00 | 0.05 | 0.00 | 92 | 1016.4 |
| 20260507120008 | 15 | 333 | 0.0 | 0.0 | 0.00 | 0.05 | 0.00 | 92 | 1016.3 |
| 20260507114506 | 15 | 333 | 0.0 | 4.8 | 0.00 | 0.08 | 0.00 | 92 | 1016.3 |
| 20260507113006 | 15 | 333 | 1.6 | 4.8 | 0.00 | 0.08 | 0.00 | 92 | 1016.3 |
| 20260507111504 | 15 | 333 | 0.0 | 3.2 | 0.00 | 0.08 | 0.00 | 92 | 1016.4 |
| 20260507110003 | 15 | 333 | 3.2 | 6.4 | 0.00 | 0.08 | 0.00 | 92 | 1016.5 |
| 20260507104502 | 15 | 281 | 0.0 | 0.0 | 0.00 | 0.08 | 0.00 | 92 | 1016.6 |
| 20260507103129 | 15 | 281 | 0.0 | 0.0 | 0.00 | 0.08 | 0.00 | 92 | 1016.7 |
| 20260507101559 | 15 | 281 | 0.0 | 0.0 | 0.00 | 0.08 | 0.00 | 92 | 1016.8 |
| 20260507100108 | 15 | 281 | 0.0 | 0.0 | 0.00 | 0.08 | 0.00 | 92 | 1016.8 |
| 20260507094559 | 15 | 281 | 0.0 | 0.0 | 0.00 | 0.08 | 0.00 | 92 | 1016.9 |
| 20260507093059 | 15 | 281 | 0.0 | 0.0 | 0.00 | 0.08 | 0.00 | 92 | 1017.1 |
| 20260507091553 | 15 | 281 | 0.0 | 0.0 | 0.00 | 0.08 | 0.00 | 92 | 1017.1 |
| 20260507090058 | 15 | 281 | 0.0 | 0.0 | 0.00 | 0.08 | 0.00 | 91 | 1017.2 |
| 20260507084603 | 15 | 281 | 0.0 | 0.0 | 0.00 | 0.08 | 0.00 | 91 | 1017.4 |
| 20260507083051 | 15 | 281 | 0.0 | 0.0 | 0.00 | 0.08 | 0.00 | 92 | 1017.4 |
| 20260507081548 | 15 | 281 | 0.0 | 0.0 | 0.00 | 0.08 | 0.00 | 91 | 1017.5 |
| 20260507080053 | 15 | 281 | 0.0 | 0.0 | 0.00 | 0.08 | 0.00 | 91 | 1017.6 |
| 20260507074546 | 15 | 281 | 0.0 | 0.0 | 0.00 | 0.08 | 0.00 | 91 | 1017.8 |
| 20260507073045 | 15 | 281 | 0.0 | 0.0 | 0.00 | 0.08 | 0.00 | 90 | 1017.8 |
| 20260507071541 | 16 | 281 | 0.0 | 0.0 | 0.00 | 0.08 | 0.00 | 90 | 1017.9 |
| 20260507070059 | 16 | 280 | 0.0 | 0.0 | 0.00 | 0.08 | 0.00 | 90 | 1017.9 |
| 20260507064548 | 16 | 280 | 0.0 | 8.0 | 0.00 | 0.08 | 0.08 | 89 | 1018.1 |
| 20260507063038 | 16 | 290 | 6.4 | 12.9 | 0.00 | 0.08 | 0.08 | 90 | 1018.2 |
| 20260507061538 | 16 | 306 | 4.8 | 8.0 | 0.00 | 0.08 | 0.08 | 90 | 1018.1 |
| 20260507060037 | 16 | 296 | 6.4 | 12.9 | 0.00 | 0.08 | 0.08 | 91 | 1018.2 |
| 20260507054554 | 16 | 290 | 8.0 | 12.9 | 0.00 | 0.10 | 0.08 | 91 | 1018.2 |
| 20260507053036 | 16 | 287 | 3.2 | 12.9 | 0.03 | 0.10 | 0.08 | 92 | 1018.2 |
| 20260507051537 | 16 | 313 | 8.0 | 12.9 | 0.03 | 0.10 | 0.08 | 91 | 1018.2 |
| 20260507050042 | 16 | 318 | 8.0 | 12.9 | 0.03 | 0.10 | 0.08 | 92 | 1018.1 |
| 20260507044539 | 16 | 311 | 12.9 | 17.7 | 0.03 | 0.10 | 0.08 | 92 | 1018.1 |
| 20260507043034 | 16 | 311 | 9.7 | 16.1 | 0.00 | 0.08 | 0.05 | 92 | 1018.0 |
| 20260507041532 | 16 | 306 | 12.9 | 17.7 | 0.00 | 0.08 | 0.05 | 91 | 1017.8 |
| 20260507040038 | 16 | 304 | 11.3 | 16.1 | 0.00 | 0.08 | 0.05 | 91 | 1017.8 |
| 20260507034532 | 16 | 320 | 8.0 | 14.5 | 0.00 | 0.08 | 0.05 | 91 | 1017.6 |
| 20260507033030 | 16 | 307 | 8.0 | 14.5 | 0.00 | 0.08 | 0.05 | 91 | 1017.5 |
| 20260507031530 | 16 | 284 | 11.3 | 14.5 | 0.00 | 0.08 | 0.05 | 90 | 1017.3 |
| 20260507030031 | 16 | 299 | 8.0 | 16.1 | 0.00 | 0.08 | 0.05 | 90 | 1017.1 |
| 20260507024534 | 16 | 315 | 11.3 | 17.7 | 0.00 | 0.08 | 0.05 | 90 | 1017.3 |
| 20260507023027 | 16 | 298 | 11.3 | 19.3 | 0.00 | 0.08 | 0.05 | 90 | 1017.2 |
| 20260507021534 | 17 | 267 | 16.1 | 20.9 | 0.00 | 0.08 | 0.05 | 89 | 1017.3 |
| 20260507020026 | 17 | 275 | 14.5 | 20.9 | 0.00 | 0.08 | 0.05 | 89 | 1017.2 |
| 20260507014528 | 17 | 290 | 16.1 | 20.9 | 0.00 | 0.10 | 0.05 | 90 | 1017.1 |
| 20260507013024 | 17 | 284 | 16.1 | 22.5 | 0.00 | 0.10 | 0.05 | 90 | 1016.9 |
| 20260507011524 | 17 | 264 | 14.5 | 19.3 | 0.00 | 0.10 | 0.05 | 90 | 1016.8 |
| 20260507010030 | 17 | 257 | 14.5 | 19.3 | 0.00 | 0.10 | 0.05 | 90 | 1016.9 |
| 20260507004519 | 17 | 274 | 17.7 | 20.9 | 0.00 | 0.10 | 0.05 | 90 | 1017.1 |
| 20260507003015 | 17 | 259 | 17.7 | 22.5 | 0.00 | 0.10 | 0.05 | 90 | 1017.0 |
| 20260507001514 | 17 | 258 | 19.3 | 22.5 | 0.00 | 0.10 | 0.05 | 89 | 1016.9 |
| 20260507000008 | 17 | 262 | 17.7 | 22.5 | 0.00 | 0.10 | 0.05 | 89 | 1016.7 |
| 20260506234504 | 17 | 275 | 17.7 | 22.5 | 0.00 | 0.10 | 0.05 | 89 | 1016.7 |
| 20260506233100 | 17 | 271 | 16.1 | 20.9 | 0.00 | 0.10 | 0.05 | 89 | 1016.7 |
| 20260506231559 | 17 | 254 | 19.3 | 24.1 | 0.00 | 0.10 | 0.05 | 89 | 1016.8 |
| 20260506230104 | 16 | 273 | 17.7 | 25.7 | 0.00 | 0.10 | 0.05 | 88 | 1016.8 |
| 20260506224556 | 17 | 267 | 16.1 | 25.7 | 0.00 | 0.10 | 0.05 | 88 | 1016.8 |
| 20260506223055 | 17 | 270 | 20.9 | 27.4 | 0.00 | 0.10 | 0.05 | 89 | 1017.0 |
| 20260506221600 | 16 | 251 | 22.5 | 25.7 | 0.00 | 0.10 | 0.05 | 88 | 1017.1 |
| 20260506220050 | 16 | 265 | 19.3 | 29.0 | 0.00 | 0.10 | 0.05 | 87 | 1017.4 |
| 20260506214549 | 16 | 261 | 20.9 | 27.4 | 0.00 | 0.13 | 0.05 | 88 | 1017.4 |
| 20260506213054 | 16 | 268 | 20.9 | 29.0 | 0.00 | 0.13 | 0.05 | 87 | 1017.5 |
| 20260506211553 | 16 | 256 | 24.1 | 29.0 | 0.00 | 0.13 | 0.05 | 87 | 1017.6 |
| 20260506210048 | 16 | 261 | 22.5 | 29.0 | 0.00 | 0.13 | 0.05 | 86 | 1017.8 |
| 20260506204546 | 16 | 265 | 20.9 | 27.4 | 0.00 | 0.13 | 0.05 | 86 | 1017.8 |
| 20260506203044 | 16 | 250 | 24.1 | 27.4 | 0.00 | 0.13 | 0.05 | 86 | 1017.9 |
| 20260506201543 | 16 | 254 | 20.9 | 25.7 | 0.00 | 0.13 | 0.05 | 86 | 1017.9 |
| 20260506200045 | 16 | 240 | 16.1 | 20.9 | 0.00 | 0.13 | 0.05 | 87 | 1018.2 |
| 20260506194543 | 16 | 234 | 17.7 | 22.5 | 0.00 | 0.13 | 0.05 | 86 | 1018.4 |
| 20260506193047 | 16 | 234 | 20.9 | 24.1 | 0.00 | 0.13 | 0.05 | 86 | 1018.3 |
| 20260506191539 | 16 | 227 | 16.1 | 20.9 | 0.00 | 0.13 | 0.05 | 86 | 1018.7 |
| 20260506190036 | 16 | 238 | 16.1 | 19.3 | 0.00 | 0.13 | 0.05 | 85 | 1018.6 |
| 20260506184539 | 16 | 250 | 14.5 | 17.7 | 0.03 | 0.15 | 0.05 | 85 | 1018.8 |
| 20260506183034 | 16 | 248 | 12.9 | 16.1 | 0.03 | 0.15 | 0.05 | 85 | 1018.9 |
| 20260506181542 | 16 | 248 | 14.5 | 17.7 | 0.03 | 0.15 | 0.05 | 85 | 1018.9 |
| 20260506180031 | 16 | 242 | 11.3 | 14.5 | 0.03 | 0.15 | 0.05 | 85 | 1018.9 |
| 20260506174535 | 16 | 252 | 11.3 | 14.5 | 0.00 | 0.13 | 0.03 | 85 | 1018.8 |
| 20260506173048 | 16 | 234 | 8.0 | 12.9 | 0.00 | 0.13 | 0.03 | 85 | 1019.0 |
| 20260506171539 | 16 | 264 | 9.7 | 12.9 | 0.00 | 0.13 | 0.03 | 84 | 1019.0 |
| 20260506170038 | 16 | 266 | 9.7 | 12.9 | 0.00 | 0.13 | 0.03 | 84 | 1019.1 |
| 20260506164526 | 16 | 257 | 6.4 | 11.3 | 0.00 | 0.15 | 0.03 | 83 | 1019.1 |
| 20260506163029 | 16 | 309 | 6.4 | 12.9 | 0.00 | 0.15 | 0.03 | 83 | 1019.0 |
| 20260506161524 | 16 | 322 | 3.2 | 8.0 | 0.00 | 0.15 | 0.03 | 83 | 1018.9 |
| 20260506160022 | 16 | 269 | 3.2 | 8.0 | 0.00 | 0.15 | 0.03 | 82 | 1019.0 |
| 20260506154520 | 16 | 54 | 0.0 | 6.4 | 0.00 | 0.15 | 0.03 | 83 | 1019.0 |
| 20260506153022 | 16 | 63 | 3.2 | 9.7 | 0.00 | 0.15 | 0.03 | 83 | 1018.9 |
| 20260506151513 | 15 | 50 | 8.0 | 11.3 | 0.00 | 0.15 | 0.03 | 84 | 1018.9 |
| 20260506150015 | 15 | 51 | 8.0 | 14.5 | 0.00 | 0.15 | 0.03 | 85 | 1018.9 |
| 20260506144510 | 14 | 30 | 8.0 | 14.5 | 0.00 | 0.18 | 0.03 | 87 | 1018.7 |
| 20260506143019 | 13 | 44 | 9.7 | 16.1 | 0.00 | 0.18 | 0.03 | 88 | 1018.7 |
| 20260506141608 | 13 | 44 | 11.3 | 17.7 | 0.00 | 0.18 | 0.03 | 88 | 1018.7 |
| 20260506140013 | 13 | 57 | 11.3 | 17.7 | 0.00 | 0.18 | 0.03 | 88 | 1018.4 |
| 20260506134505 | 12 | 40 | 9.7 | 17.7 | 0.00 | 0.18 | 0.03 | 89 | 1018.4 |
| 20260506133003 | 12 | 44 | 9.7 | 16.1 | 0.00 | 0.18 | 0.03 | 88 | 1018.3 |
| 20260506131507 | 12 | 47 | 11.3 | 16.1 | 0.00 | 0.18 | 0.03 | 89 | 1018.3 |